createdAt,value
2023-05-23T00:00:41.557Z,18.98
2023-05-23T00:02:44.799Z,18.96
2023-05-23T00:04:49.439Z,18.93
2023-05-23T00:06:53.505Z,18.92
2023-05-23T00:08:57.616Z,18.91
2023-05-23T00:11:00.682Z,18.87
2023-05-23T00:13:03.853Z,18.84
2023-05-23T00:15:09.917Z,18.76
2023-05-23T00:17:13.183Z,18.68
2023-05-23T00:19:17.241Z,18.64
2023-05-23T00:21:21.898Z,18.63
2023-05-23T00:23:25.359Z,18.64
2023-05-23T00:25:34.364Z,18.60
2023-05-23T00:27:37.504Z,18.53
2023-05-23T00:29:40.633Z,18.48
2023-05-23T00:31:46.388Z,18.47
2023-05-23T00:33:50.620Z,18.46
2023-05-23T00:35:53.867Z,18.49
2023-05-23T00:37:58.282Z,18.49
2023-05-23T00:40:01.434Z,18.49
2023-05-23T00:42:06.452Z,18.48
2023-05-23T00:44:11.190Z,18.41
2023-05-23T00:46:14.410Z,18.36
2023-05-23T00:48:17.502Z,18.32
2023-05-23T00:50:20.907Z,18.29
2023-05-23T00:52:23.978Z,18.27
2023-05-23T00:54:31.504Z,18.24
2023-05-23T00:56:34.789Z,18.20
2023-05-23T00:58:37.860Z,18.20
2023-05-23T01:00:41.105Z,18.21
2023-05-23T01:02:46.260Z,18.25
2023-05-23T01:04:54.225Z,18.25
2023-05-23T01:06:57.918Z,18.25
2023-05-23T01:09:02.971Z,18.27
2023-05-23T01:11:13.216Z,18.27
2023-05-23T01:13:23.325Z,18.26
2023-05-23T01:15:30.512Z,18.23
2023-05-23T01:17:37.645Z,18.23
2023-05-23T01:19:53.325Z,18.27
2023-05-23T01:21:57.098Z,18.28
2023-05-23T01:24:24.348Z,18.26
2023-05-23T01:26:48.255Z,18.25
2023-05-23T01:28:56.916Z,18.26
2023-05-23T01:31:03.030Z,18.29
2023-05-23T01:33:06.294Z,18.30
2023-05-23T01:35:10.028Z,18.32
2023-05-23T01:37:14.732Z,18.32
2023-05-23T01:39:17.894Z,18.27
2023-05-23T01:41:21.273Z,18.23
2023-05-23T01:43:25.907Z,18.22
2023-05-23T01:45:30.901Z,18.24
2023-05-23T01:47:34.404Z,18.27
2023-05-23T01:49:38.658Z,18.22
2023-05-23T01:51:42.284Z,18.24
2023-05-23T01:53:45.458Z,18.24
2023-05-23T01:55:49.339Z,18.24
2023-05-23T01:57:53.376Z,18.24
2023-05-23T01:59:56.604Z,18.25
2023-05-23T02:02:01.255Z,18.30
2023-05-23T02:04:05.012Z,18.31
2023-05-23T02:06:08.215Z,18.32
2023-05-23T02:08:11.315Z,18.36
2023-05-23T02:10:14.637Z,18.39
2023-05-23T02:12:17.717Z,18.42
2023-05-23T02:14:21.061Z,18.46
2023-05-23T02:16:26.193Z,18.48
2023-05-23T02:18:30.782Z,18.51
2023-05-23T02:20:34.047Z,18.53
2023-05-23T02:22:37.149Z,18.54
2023-05-23T02:24:40.340Z,18.58
2023-05-23T02:26:43.419Z,18.59
2023-05-23T02:28:46.651Z,18.61
2023-05-23T02:30:51.835Z,18.62
2023-05-23T02:32:55.123Z,18.64
2023-05-23T02:34:59.741Z,18.65
2023-05-23T02:37:02.908Z,18.68
2023-05-23T02:39:06.631Z,18.69
2023-05-23T02:41:09.926Z,18.70
2023-05-23T02:43:13.311Z,18.71
2023-05-23T02:45:16.348Z,18.74
2023-05-23T02:47:19.448Z,18.75
2023-05-23T02:49:22.586Z,18.77
2023-05-23T02:51:28.615Z,18.77
2023-05-23T02:53:31.881Z,18.78
2023-05-23T02:55:35.135Z,18.78
2023-05-23T02:57:38.184Z,18.77
2023-05-23T02:59:41.271Z,18.75
2023-05-23T03:01:44.413Z,18.76
2023-05-23T03:03:47.569Z,18.77
2023-05-23T03:05:51.582Z,18.79
2023-05-23T03:07:56.075Z,18.78
2023-05-23T03:09:59.661Z,18.77
2023-05-23T03:12:02.715Z,18.79
2023-05-23T03:14:06.501Z,18.79
2023-05-23T03:16:09.629Z,18.77
2023-05-23T03:18:12.707Z,18.77
2023-05-23T03:20:15.749Z,18.76
2023-05-23T03:22:18.808Z,18.76
2023-05-23T03:24:23.256Z,18.78
2023-05-23T03:26:26.306Z,18.79
2023-05-23T03:28:29.347Z,18.81
2023-05-23T03:30:32.512Z,18.83
2023-05-23T03:32:36.012Z,18.83
2023-05-23T03:34:39.061Z,18.83
2023-05-23T03:36:42.110Z,18.84
2023-05-23T03:38:45.454Z,18.86
2023-05-23T03:40:50.069Z,18.89
2023-05-23T03:43:02.951Z,18.90
2023-05-23T03:45:07.513Z,18.92
2023-05-23T03:47:10.886Z,18.92
2023-05-23T03:49:16.671Z,18.92
2023-05-23T03:51:19.759Z,18.92
2023-05-23T03:53:22.917Z,18.93
2023-05-23T03:55:26.047Z,18.94
2023-05-23T03:57:30.867Z,18.96
2023-05-23T03:59:34.059Z,18.96
2023-05-23T04:01:41.352Z,18.98
2023-05-23T04:03:45.019Z,19.00
2023-05-23T04:05:48.517Z,19.02
2023-05-23T04:07:52.559Z,19.05
2023-05-23T04:09:55.866Z,19.05
2023-05-23T04:11:59.205Z,19.06
2023-05-23T04:14:05.071Z,19.07
2023-05-23T04:16:08.424Z,19.08
2023-05-23T04:18:11.529Z,19.09
2023-05-23T04:20:14.781Z,19.10
2023-05-23T04:22:18.168Z,19.09
2023-05-23T04:24:23.259Z,19.10
2023-05-23T04:26:26.435Z,19.12
2023-05-23T04:28:30.180Z,19.12
2023-05-23T04:30:34.657Z,19.15
2023-05-23T04:32:38.305Z,19.15
2023-05-23T04:34:42.136Z,19.16
2023-05-23T04:36:45.702Z,19.17
2023-05-23T04:38:49.366Z,19.18
2023-05-23T04:40:53.254Z,19.20
2023-05-23T04:43:21.950Z,19.22
2023-05-23T04:45:28.602Z,19.22
2023-05-23T04:47:56.563Z,19.26
2023-05-23T04:50:18.634Z,19.29
2023-05-23T04:52:21.991Z,19.31
2023-05-23T04:54:25.175Z,19.32
2023-05-23T04:56:29.777Z,19.35
2023-05-23T04:58:33.656Z,19.37
2023-05-23T05:00:40.979Z,19.41
2023-05-23T05:02:44.736Z,19.44
2023-05-23T05:04:49.318Z,19.49
2023-05-23T05:06:52.610Z,19.50
2023-05-23T05:08:55.975Z,19.50
2023-05-23T05:10:59.145Z,19.53
2023-05-23T05:13:02.360Z,19.57
2023-05-23T05:15:18.416Z,19.57
2023-05-23T05:17:25.153Z,19.58
2023-05-23T05:19:40.309Z,19.61
2023-05-23T05:21:44.789Z,19.63
2023-05-23T05:23:47.886Z,19.65
2023-05-23T05:25:53.221Z,19.65
2023-05-23T05:27:56.934Z,19.64
2023-05-23T05:30:04.925Z,19.64
2023-05-23T05:32:10.317Z,19.64
2023-05-23T05:34:13.736Z,19.65
2023-05-23T05:36:16.931Z,19.67
2023-05-23T05:38:22.968Z,19.73
2023-05-23T05:40:26.176Z,19.79
2023-05-23T05:42:29.346Z,19.89
2023-05-23T05:44:32.475Z,19.98
2023-05-23T05:46:35.902Z,20.06
2023-05-23T05:48:39.353Z,20.09
2023-05-23T05:50:45.665Z,20.08
2023-05-23T05:52:49.323Z,20.05
2023-05-23T05:54:53.788Z,20.04
2023-05-23T05:56:56.993Z,20.06
2023-05-23T05:59:00.806Z,20.07
2023-05-23T06:01:05.745Z,20.08
2023-05-23T06:03:08.996Z,20.08
2023-05-23T06:05:18.980Z,20.07
2023-05-23T06:07:22.796Z,20.06
2023-05-23T06:09:25.993Z,20.07
2023-05-23T06:11:30.460Z,20.05
2023-05-23T06:13:34.128Z,20.04
2023-05-23T06:15:37.263Z,20.04
2023-05-23T06:17:40.643Z,20.03
2023-05-23T06:19:44.237Z,20.06
2023-05-23T06:21:47.520Z,20.13
2023-05-23T06:23:52.394Z,20.21
2023-05-23T06:25:55.456Z,20.28
2023-05-23T06:28:00.760Z,20.36
2023-05-23T06:30:04.332Z,20.47
2023-05-23T06:32:08.157Z,20.52
2023-05-23T06:34:11.432Z,20.58
2023-05-23T06:36:15.660Z,20.58
2023-05-23T06:38:18.783Z,20.57
2023-05-23T06:40:21.912Z,20.51
2023-05-23T06:42:26.469Z,20.50
2023-05-23T06:44:41.767Z,20.46
2023-05-23T06:46:47.710Z,20.49
2023-05-23T06:49:02.693Z,20.50
2023-05-23T06:51:11.654Z,20.51
2023-05-23T06:53:18.843Z,20.52
2023-05-23T06:55:23.789Z,20.49
2023-05-23T06:57:26.886Z,20.47
2023-05-23T06:59:30.032Z,20.48
2023-05-23T07:01:34.502Z,20.46
2023-05-23T07:03:38.397Z,20.50
2023-05-23T07:05:43.372Z,20.55
2023-05-23T07:07:47.289Z,20.54
2023-05-23T07:09:51.062Z,20.53
2023-05-23T07:11:55.889Z,20.53
2023-05-23T07:14:00.553Z,20.53
2023-05-23T07:16:12.478Z,20.53
2023-05-23T07:18:27.861Z,20.50
2023-05-23T07:20:34.340Z,20.52
2023-05-23T07:22:46.281Z,20.52
2023-05-23T07:24:49.631Z,20.47
2023-05-23T07:26:53.314Z,20.43
2023-05-23T07:28:56.433Z,20.43
2023-05-23T07:30:59.612Z,20.42
2023-05-23T07:33:03.262Z,20.43
2023-05-23T07:35:08.801Z,20.50
2023-05-23T07:37:11.938Z,20.60
2023-05-23T07:39:22.195Z,20.71
2023-05-23T07:41:26.946Z,20.82
2023-05-23T07:43:30.061Z,20.91
2023-05-23T07:45:33.285Z,21.01
2023-05-23T07:47:37.157Z,21.14
2023-05-23T07:49:40.428Z,21.27
2023-05-23T07:51:44.922Z,21.31
2023-05-23T07:53:48.335Z,21.36
2023-05-23T07:55:51.596Z,21.41
2023-05-23T07:57:56.539Z,21.71
2023-05-23T08:00:01.102Z,22.07
2023-05-23T08:02:06.391Z,22.55
2023-05-23T08:04:09.573Z,22.78
2023-05-23T08:06:20.654Z,22.87
2023-05-23T08:08:25.477Z,22.67
2023-05-23T08:10:29.951Z,22.48
2023-05-23T08:12:40.214Z,22.44
2023-05-23T08:14:52.208Z,22.53
2023-05-23T08:17:19.189Z,22.81
2023-05-23T08:19:23.043Z,22.96
2023-05-23T08:21:26.945Z,22.79
2023-05-23T08:23:31.750Z,22.54
2023-05-23T08:25:34.969Z,22.28
2023-05-23T08:27:38.577Z,22.02
2023-05-23T08:29:52.720Z,21.83
2023-05-23T08:31:56.477Z,21.65
2023-05-23T08:34:00.616Z,21.45
2023-05-23T08:36:05.612Z,21.29
2023-05-23T08:38:09.251Z,21.20
2023-05-23T08:40:20.118Z,21.05
2023-05-23T08:42:30.547Z,20.93
2023-05-23T08:44:34.151Z,20.85
2023-05-23T08:46:42.442Z,20.83
2023-05-23T08:48:52.224Z,20.85
2023-05-23T08:50:56.092Z,20.84
2023-05-23T08:53:01.272Z,20.89
2023-05-23T08:55:06.255Z,20.92
2023-05-23T08:57:11.565Z,20.98
2023-05-23T08:59:18.985Z,21.02
2023-05-23T09:01:23.618Z,21.04
2023-05-23T09:03:30.173Z,21.09
2023-05-23T09:05:43.660Z,21.07
2023-05-23T09:07:48.131Z,21.10
2023-05-23T09:09:51.989Z,21.21
2023-05-23T09:11:56.651Z,21.33
2023-05-23T09:14:01.242Z,21.58
2023-05-23T09:16:06.277Z,21.81
2023-05-23T09:18:15.665Z,21.96
2023-05-23T09:20:19.324Z,22.03
2023-05-23T09:22:29.746Z,21.97
2023-05-23T09:24:41.549Z,22.02
2023-05-23T09:26:48.004Z,22.03
2023-05-23T09:28:51.613Z,22.00
2023-05-23T09:31:00.931Z,21.80
2023-05-23T09:33:05.896Z,21.55
2023-05-23T09:35:12.479Z,21.44
2023-05-23T09:37:19.040Z,21.36
2023-05-23T09:39:22.285Z,21.34
2023-05-23T09:41:26.681Z,21.26
2023-05-23T09:43:30.194Z,21.35
2023-05-23T09:45:34.358Z,21.53
2023-05-23T09:47:39.979Z,21.65
2023-05-23T09:49:44.782Z,21.63
2023-05-23T09:51:58.578Z,21.59
2023-05-23T09:54:01.745Z,21.68
2023-05-23T09:56:05.331Z,21.86
2023-05-23T09:58:09.330Z,21.84
2023-05-23T10:00:14.156Z,21.98
2023-05-23T10:02:19.595Z,22.14
2023-05-23T10:04:24.474Z,22.31
2023-05-23T10:06:31.034Z,22.31
2023-05-23T10:08:38.128Z,22.26
2023-05-23T10:11:32.383Z,22.36
2023-05-23T10:13:35.905Z,22.63
2023-05-23T10:15:41.029Z,22.41
2023-05-23T10:17:54.977Z,22.14
2023-05-23T10:20:02.567Z,22.15
2023-05-23T10:22:08.313Z,22.43
2023-05-23T10:24:12.893Z,22.81
2023-05-23T10:26:16.908Z,23.06
2023-05-23T10:28:20.947Z,23.20
2023-05-23T10:30:24.209Z,23.32
2023-05-23T10:32:27.635Z,23.33
2023-05-23T10:34:35.688Z,23.28
2023-05-23T10:36:46.138Z,23.27
2023-05-23T10:38:53.262Z,23.30
2023-05-23T10:41:02.688Z,23.41
2023-05-23T10:43:11.836Z,23.13
2023-05-23T10:45:19.345Z,22.91
2023-05-23T10:47:29.565Z,22.78
2023-05-23T10:49:40.086Z,22.81
2023-05-23T10:51:45.706Z,22.93
2023-05-23T10:53:54.987Z,22.97
2023-05-23T10:55:58.788Z,23.08
2023-05-23T10:58:12.565Z,23.12
2023-05-23T11:00:17.314Z,23.04
2023-05-23T11:02:23.874Z,23.16
2023-05-23T11:04:28.033Z,23.02
2023-05-23T11:06:34.084Z,23.21
2023-05-23T11:08:48.879Z,23.54
2023-05-23T11:10:56.724Z,23.86
2023-05-23T11:13:07.899Z,23.82
2023-05-23T11:15:24.024Z,23.46
2023-05-23T11:17:34.170Z,23.17
2023-05-23T11:19:37.495Z,23.06
2023-05-23T11:21:41.281Z,22.99
2023-05-23T11:23:45.964Z,22.99
2023-05-23T11:25:51.510Z,23.00
2023-05-23T11:27:55.303Z,23.05
2023-05-23T11:30:04.306Z,23.08
2023-05-23T11:32:16.882Z,23.20
2023-05-23T11:34:21.778Z,23.40
2023-05-23T11:36:25.113Z,23.55
2023-05-23T11:38:28.592Z,23.64
2023-05-23T11:40:34.551Z,23.78
2023-05-23T11:42:43.134Z,23.86
2023-05-23T11:44:50.357Z,23.92
2023-05-23T11:47:04.007Z,23.86
2023-05-23T11:49:12.137Z,23.85
2023-05-23T11:51:16.293Z,23.94
2023-05-23T11:53:21.613Z,23.92
2023-05-23T11:55:25.085Z,23.88
2023-05-23T11:57:29.896Z,23.70
2023-05-23T11:59:33.174Z,23.58
2023-05-23T12:01:38.448Z,23.49
2023-05-23T12:03:51.040Z,23.50
2023-05-23T12:05:55.992Z,23.54
2023-05-23T12:08:02.293Z,23.62
2023-05-23T12:10:06.744Z,23.66
2023-05-23T12:12:10.094Z,23.61
2023-05-23T12:14:17.695Z,23.55
2023-05-23T12:16:22.394Z,23.43
2023-05-23T12:18:26.970Z,23.28
2023-05-23T12:20:35.276Z,23.21
2023-05-23T12:22:38.716Z,23.26
2023-05-23T12:24:47.134Z,23.32
2023-05-23T12:26:51.767Z,23.42
2023-05-23T12:28:55.115Z,23.46
2023-05-23T12:31:13.525Z,23.50
2023-05-23T12:33:16.959Z,23.49
2023-05-23T12:35:20.176Z,23.50
2023-05-23T12:37:24.545Z,23.46
2023-05-23T12:39:29.320Z,23.42
2023-05-23T12:41:33.913Z,23.40
2023-05-23T12:43:39.752Z,23.33
2023-05-23T12:45:43.526Z,23.27
2023-05-23T12:47:48.358Z,23.18
2023-05-23T12:49:51.557Z,23.17
2023-05-23T12:51:54.779Z,23.20
2023-05-23T12:53:58.439Z,23.19
2023-05-23T12:56:02.706Z,23.19
2023-05-23T12:58:06.140Z,23.25
2023-05-23T13:00:10.951Z,23.36
2023-05-23T13:02:14.285Z,23.45
2023-05-23T13:04:19.353Z,23.42
2023-05-23T13:06:22.775Z,23.24
2023-05-23T13:08:25.988Z,23.08
2023-05-23T13:10:31.824Z,22.99
2023-05-23T13:12:35.363Z,22.96
2023-05-23T13:14:38.542Z,22.93
2023-05-23T13:16:42.026Z,22.86
2023-05-23T13:18:45.270Z,22.83
2023-05-23T13:20:49.972Z,22.95
2023-05-23T13:22:53.034Z,23.09
2023-05-23T13:24:56.456Z,23.22
2023-05-23T13:26:59.594Z,23.23
2023-05-23T13:29:04.229Z,23.11
2023-05-23T13:31:07.549Z,23.15
2023-05-23T13:33:12.086Z,23.18
2023-05-23T13:35:15.488Z,23.19
2023-05-23T13:37:20.124Z,23.19
2023-05-23T13:39:23.603Z,23.11
2023-05-23T13:41:27.555Z,22.96
2023-05-23T13:43:31.250Z,22.69
2023-05-23T13:45:34.643Z,22.53
2023-05-23T13:47:37.882Z,22.60
2023-05-23T13:49:41.508Z,22.73
2023-05-23T13:51:45.613Z,22.75
2023-05-23T13:53:50.417Z,22.73
2023-05-23T13:55:54.955Z,22.79
2023-05-23T13:57:58.259Z,22.70
2023-05-23T14:00:02.763Z,22.68
2023-05-23T14:02:11.944Z,22.73
2023-05-23T14:04:15.331Z,22.81
2023-05-23T14:06:18.934Z,22.81
2023-05-23T14:08:22.219Z,22.70
2023-05-23T14:10:27.098Z,22.73
2023-05-23T14:12:30.685Z,22.49
2023-05-23T14:14:34.090Z,22.45
2023-05-23T14:16:37.452Z,22.41
2023-05-23T14:18:40.659Z,22.40
2023-05-23T14:20:43.929Z,22.43
2023-05-23T14:22:47.243Z,22.45
2023-05-23T14:24:51.093Z,22.49
2023-05-23T14:26:56.212Z,22.48
2023-05-23T14:28:59.676Z,22.37
2023-05-23T14:31:02.812Z,22.09
2023-05-23T14:33:07.877Z,21.93
2023-05-23T14:35:13.395Z,22.05
2023-05-23T14:37:16.499Z,22.13
2023-05-23T14:39:19.883Z,22.11
2023-05-23T14:41:23.041Z,22.18
2023-05-23T14:43:28.695Z,22.26
2023-05-23T14:47:35.490Z,22.42
2023-05-23T14:49:38.684Z,22.54
2023-05-23T14:51:49.748Z,22.58
2023-05-23T14:53:53.869Z,22.67
2023-05-23T14:55:57.223Z,22.62
2023-05-23T14:58:01.076Z,22.61
2023-05-23T15:00:06.724Z,22.67
2023-05-23T15:02:09.964Z,22.69
2023-05-23T15:04:13.195Z,22.66
2023-05-23T15:06:16.384Z,22.61
2023-05-23T15:08:19.604Z,22.50
2023-05-23T15:10:22.790Z,22.51
2023-05-23T15:12:26.860Z,22.55
2023-05-23T15:14:32.840Z,22.59
2023-05-23T15:16:37.496Z,22.62
2023-05-23T15:18:42.116Z,22.64
2023-05-23T15:20:45.827Z,22.60
2023-05-23T15:22:49.063Z,22.65
2023-05-23T15:24:52.386Z,22.67
2023-05-23T15:27:02.223Z,22.69
2023-05-23T15:29:12.509Z,22.71
2023-05-23T15:31:15.618Z,22.63
2023-05-23T15:33:20.238Z,22.59
2023-05-23T15:35:23.864Z,22.44
2023-05-23T15:37:27.048Z,22.40
2023-05-23T15:39:30.462Z,22.48
2023-05-23T15:41:33.577Z,22.46
2023-05-23T15:43:38.020Z,22.37
2023-05-23T15:45:42.451Z,22.29
2023-05-23T15:47:45.704Z,22.32
2023-05-23T15:49:50.900Z,22.32
2023-05-23T15:51:55.338Z,22.31
2023-05-23T15:54:01.360Z,22.33
2023-05-23T15:56:04.916Z,22.29
2023-05-23T15:58:09.487Z,22.25
2023-05-23T16:00:13.936Z,22.21
2023-05-23T16:02:18.991Z,22.09
2023-05-23T16:04:23.429Z,22.07
2023-05-23T16:06:28.287Z,22.12
2023-05-23T16:08:31.990Z,22.15
2023-05-23T16:10:35.665Z,22.10
2023-05-23T16:12:38.898Z,21.95
2023-05-23T16:14:42.382Z,21.85
2023-05-23T16:16:45.607Z,21.84
2023-05-23T16:18:50.088Z,21.84
2023-05-23T16:20:53.253Z,21.81
2023-05-23T16:22:57.718Z,21.79
2023-05-23T16:25:00.931Z,21.71
2023-05-23T16:27:04.519Z,21.70
2023-05-23T16:29:08.483Z,21.64
2023-05-23T16:31:16.728Z,21.63
2023-05-23T16:33:20.051Z,21.56
2023-05-23T16:35:23.279Z,21.49
2023-05-23T16:37:26.355Z,21.48
2023-05-23T16:39:30.811Z,21.40
2023-05-23T16:41:33.959Z,21.37
2023-05-23T16:43:37.089Z,21.40
2023-05-23T16:45:41.966Z,21.46
2023-05-23T16:47:45.432Z,21.45
2023-05-23T16:49:48.672Z,21.35
2023-05-23T16:51:51.828Z,21.35
2023-05-23T16:53:54.953Z,21.34
2023-05-23T16:56:04.410Z,21.37
2023-05-23T16:58:07.523Z,21.31
2023-05-23T17:00:11.884Z,21.22
2023-05-23T17:02:15.867Z,21.05
2023-05-23T17:04:20.500Z,20.89
2023-05-23T17:06:23.834Z,20.82
2023-05-23T17:08:26.990Z,20.80
2023-05-23T17:10:30.092Z,20.78
2023-05-23T17:12:34.646Z,20.69
2023-05-23T17:14:37.739Z,20.54
2023-05-23T17:16:41.096Z,20.51
2023-05-23T17:18:44.255Z,20.41
2023-05-23T17:20:47.482Z,20.27
2023-05-23T17:22:50.748Z,20.20
2023-05-23T17:24:53.905Z,20.11
2023-05-23T17:26:57.093Z,20.01
2023-05-23T17:29:01.647Z,19.89
2023-05-23T17:31:04.874Z,19.85
2023-05-23T17:33:08.098Z,19.91
2023-05-23T17:35:11.859Z,19.87
2023-05-23T17:37:15.165Z,19.79
2023-05-23T17:39:18.212Z,19.74
2023-05-23T17:41:23.053Z,19.73
2023-05-23T17:43:26.326Z,19.80
2023-05-23T17:45:31.523Z,19.66
2023-05-23T17:47:34.691Z,19.62
2023-05-23T17:49:38.779Z,19.54
2023-05-23T17:51:41.904Z,19.58
2023-05-23T17:53:45.071Z,19.54
2023-05-23T17:55:48.625Z,19.47
2023-05-23T17:57:51.866Z,19.51
2023-05-23T17:59:55.202Z,19.57
2023-05-23T18:01:59.808Z,19.60
2023-05-23T18:04:03.093Z,19.59
2023-05-23T18:06:06.760Z,19.46
2023-05-23T18:08:09.862Z,19.48
2023-05-23T18:10:13.181Z,19.43
2023-05-23T18:12:17.696Z,19.49
2023-05-23T18:14:21.523Z,19.51
2023-05-23T18:16:24.587Z,19.52
2023-05-23T18:18:29.150Z,19.47
2023-05-23T18:20:32.273Z,19.37
2023-05-23T18:22:35.384Z,19.29
2023-05-23T18:24:38.577Z,19.30
2023-05-23T18:26:43.112Z,19.24
2023-05-23T18:28:46.262Z,19.19
2023-05-23T18:30:49.725Z,19.16
2023-05-23T18:32:52.969Z,19.17
2023-05-23T18:34:57.620Z,19.16
2023-05-23T18:37:02.119Z,19.09
2023-05-23T18:39:05.512Z,19.05
2023-05-23T18:41:13.213Z,18.95
2023-05-23T18:43:17.833Z,18.87
2023-05-23T18:45:21.259Z,18.81
2023-05-23T18:47:24.563Z,18.75
2023-05-23T18:49:27.738Z,18.73
2023-05-23T18:51:32.337Z,18.71
2023-05-23T18:53:35.691Z,18.64
2023-05-23T18:55:39.212Z,18.69
2023-05-23T18:57:42.405Z,18.65
2023-05-23T18:59:45.564Z,18.60
2023-05-23T19:01:48.765Z,18.58
2023-05-23T19:03:52.106Z,18.50
2023-05-23T19:05:59.575Z,18.48
2023-05-23T19:08:04.449Z,18.45
2023-05-23T19:10:08.435Z,18.42
2023-05-23T19:12:11.694Z,18.38
2023-05-23T19:14:15.104Z,18.32
2023-05-23T19:16:20.443Z,18.26
2023-05-23T19:18:23.706Z,18.32
2023-05-23T19:20:26.925Z,18.25
2023-05-23T19:22:38.988Z,18.08
2023-05-23T19:24:48.073Z,18.07
2023-05-23T19:26:51.317Z,18.02
2023-05-23T19:28:54.978Z,18.03
2023-05-23T19:30:58.114Z,17.92
2023-05-23T19:33:01.781Z,17.84
2023-05-23T19:35:05.656Z,17.89
2023-05-23T19:37:09.446Z,17.74
2023-05-23T19:39:13.437Z,17.75
2023-05-23T19:41:20.152Z,17.79
2023-05-23T19:43:23.421Z,17.82
2023-05-23T19:45:26.840Z,17.85
2023-05-23T19:47:31.041Z,17.77
2023-05-23T19:49:34.378Z,17.80
2023-05-23T19:51:37.886Z,17.82
2023-05-23T19:53:41.638Z,17.88
2023-05-23T19:55:44.786Z,17.91
2023-05-23T19:57:49.429Z,17.96
2023-05-23T19:59:52.792Z,17.94
2023-05-23T20:01:56.053Z,17.90
2023-05-23T20:03:59.502Z,17.90
2023-05-23T20:06:02.657Z,17.96
2023-05-23T20:08:05.856Z,17.99
2023-05-23T20:10:09.948Z,18.01
2023-05-23T20:12:13.072Z,18.03
2023-05-23T20:14:17.644Z,18.01
2023-05-23T20:16:20.859Z,17.93
2023-05-23T20:18:24.122Z,17.90
2023-05-23T20:20:27.325Z,17.94
2023-05-23T20:22:30.501Z,18.01
2023-05-23T20:24:33.837Z,18.02
2023-05-23T20:26:37.285Z,18.06
2023-05-23T20:28:41.148Z,18.09
2023-05-23T20:30:45.989Z,18.09
2023-05-23T20:32:53.085Z,17.97
2023-05-23T20:34:56.309Z,17.91
2023-05-23T20:36:59.652Z,17.89
2023-05-23T20:39:02.759Z,17.84
2023-05-23T20:41:07.423Z,17.84
2023-05-23T20:43:10.630Z,17.84
2023-05-23T20:45:13.862Z,17.77
2023-05-23T20:47:18.825Z,17.77
2023-05-23T20:49:22.477Z,17.74
2023-05-23T20:51:25.799Z,17.68
2023-05-23T20:53:29.841Z,17.66
2023-05-23T20:55:35.380Z,17.59
2023-05-23T20:57:38.510Z,17.62
2023-05-23T20:59:41.836Z,17.60
2023-05-23T21:01:45.070Z,17.59
2023-05-23T21:03:49.628Z,17.59
2023-05-23T21:05:52.774Z,17.62
2023-05-23T21:07:55.833Z,17.64
2023-05-23T21:10:02.119Z,17.63
2023-05-23T21:12:05.873Z,17.60
2023-05-23T21:14:08.900Z,17.57
2023-05-23T21:16:14.741Z,17.53
2023-05-23T21:18:18.029Z,17.44
2023-05-23T21:20:22.573Z,17.47
2023-05-23T21:22:25.677Z,17.42
2023-05-23T21:24:29.632Z,17.44
2023-05-23T21:26:32.872Z,17.46
2023-05-23T21:28:36.061Z,17.45
2023-05-23T21:30:40.408Z,17.41
2023-05-23T21:32:44.797Z,17.44
2023-05-23T21:34:48.159Z,17.39
2023-05-23T21:36:52.717Z,17.35
2023-05-23T21:38:55.867Z,17.21
2023-05-23T21:40:59.089Z,17.10
2023-05-23T21:43:02.210Z,16.94
2023-05-23T21:45:06.118Z,16.76
2023-05-23T21:47:09.363Z,16.64
2023-05-23T21:49:12.491Z,16.54
2023-05-23T21:51:15.583Z,16.50
2023-05-23T21:53:20.145Z,16.46
2023-05-23T21:55:23.222Z,16.39
2023-05-23T21:57:26.303Z,16.41
2023-05-23T21:59:29.417Z,16.42
2023-05-23T22:01:33.057Z,16.40
2023-05-23T22:03:36.662Z,16.43
2023-05-23T22:05:40.008Z,16.43
2023-05-23T22:07:43.106Z,16.26
2023-05-23T22:09:47.513Z,16.18
2023-05-23T22:11:50.662Z,16.10
2023-05-23T22:13:53.730Z,15.98
2023-05-23T22:15:56.848Z,15.88
2023-05-23T22:18:00.103Z,15.77
2023-05-23T22:20:05.208Z,15.78
2023-05-23T22:22:09.871Z,15.62
2023-05-23T22:24:13.083Z,15.64
2023-05-23T22:26:17.705Z,15.62
2023-05-23T22:28:20.792Z,15.58
2023-05-23T22:30:24.038Z,15.55
2023-05-23T22:32:27.218Z,15.57
2023-05-23T22:34:31.006Z,15.62
2023-05-23T22:36:34.236Z,15.68
2023-05-23T22:38:37.512Z,15.71
2023-05-23T22:40:40.756Z,15.71
2023-05-23T22:42:45.360Z,15.74
2023-05-23T22:44:48.553Z,15.77
2023-05-23T22:46:52.121Z,15.78
2023-05-23T22:48:56.161Z,15.87
2023-05-23T22:50:59.607Z,15.93
2023-05-23T22:53:03.490Z,15.98
2023-05-23T22:55:08.257Z,15.96
2023-05-23T22:57:11.417Z,16.00
2023-05-23T22:59:16.082Z,16.05
2023-05-23T23:01:19.278Z,16.02
2023-05-23T23:03:22.643Z,15.95
2023-05-23T23:05:25.976Z,15.93
2023-05-23T23:07:29.038Z,15.98
2023-05-23T23:09:32.106Z,15.92
2023-05-23T23:11:35.244Z,15.88
2023-05-23T23:13:38.332Z,15.84
2023-05-23T23:15:44.015Z,15.86
2023-05-23T23:17:47.098Z,15.81
2023-05-23T23:19:51.597Z,15.79
2023-05-23T23:21:54.718Z,15.80
2023-05-23T23:23:58.445Z,15.87
2023-05-23T23:26:01.532Z,15.97
2023-05-23T23:28:04.905Z,16.03
2023-05-23T23:30:09.233Z,16.02
2023-05-23T23:32:13.729Z,16.05
2023-05-23T23:34:16.951Z,16.09
2023-05-23T23:36:20.052Z,16.14
2023-05-23T23:38:23.118Z,16.12
2023-05-23T23:40:26.449Z,16.12
2023-05-23T23:42:29.554Z,16.04
2023-05-23T23:44:32.624Z,16.06
2023-05-23T23:46:35.715Z,16.03
2023-05-23T23:48:40.193Z,16.05
2023-05-23T23:50:43.408Z,16.08
2023-05-23T23:52:46.701Z,16.08
2023-05-23T23:54:49.768Z,16.12
2023-05-23T23:56:52.831Z,16.12
2023-05-23T23:58:55.907Z,16.13
